Terminal Aerodrome Forecast
Issued by NWS

Home | Current Version | Previous Version | Text Only | Print | Product List | Glossary On
Versions: 1 2 3 4 5 6 7 8 9 10 11 12 13 14 15 16 17 18 19 20 21 22 23
000
FTUS42 KRAH 241120
TAFRWI
TAF
KRWI 241120Z 2412/2512 01003KT 2SM BR OVC002
     FM241500 14006KT P6SM BKN015
     FM241700 17010KT P6SM VCSH BKN025
      TEMPO 2419/2423 2SM +TSRA BR SCT025 BKN035CB BKN150
     FM250100 20009KT 5SM -SHRA BR SCT008 BKN050
     FM250500 22008KT P6SM BKN008=

USA.gov is the U.S. government's official web portal to all federal, state and local government web resources and services.